x

8413320 - Bar Harbor, Me (atgm1) Weather Station

2:54 - Sat 6th Feb 2016 All times are EST. -5 hours from GMT.

  • Wind
    15mph, 21mph gusts
  • Sea Temp 36°f
  • Air Temp 21°f
  • Sea Pressure 1020.8mb
  • 8413320 - Bar Harbor, Me
  • 8413320 - Bar Harbor, Me

More Historic Weather Station data

Upgrade to MSW Pro to gain access to the past 30 days of data for over 8000 Wavebouys and Weather Stations around the globe.

Join Pro

Comparision Forecast

View Surf forecast
   
sam. 02/06 2:54 15 21 mph 1020.8mb 36f 21f
2:48 16 21 mph 1020.8mb 36f 21f
2:42 17 20 mph 1020.8mb 36f 21f
2:36 20 21 mph 1020.6mb 36f 21f
2:30 15 20 mph 1020.6mb 36f 21f
2:24 11 15 mph 1020.8mb 36f 20f
2:18 11 16 mph 1020.8mb 36f 21f
2:12 10 16 mph 1020.7mb 36f 20f
2:06 14 17 mph 1020.6mb 36f 21f
2:00 13 17 mph 1020.5mb 36f 21f
1:54 15 20 mph 1020.4mb 36f 22f
1:48 15 20 mph 1020.3mb 36f 21f
1:42 15 18 mph 1020.1mb 36f 21f
1:36 14 20 mph 1020.1mb 36f 21f
1:30 17 22 mph 1020mb 37f 21f
1:24 18 21 mph 1019.7mb 36f 22f
1:18 15 18 mph 1019.6mb 36f 22f
1:12 15 20 mph 1019.5mb 36f 22f
1:06 18 25 mph 1019.3mb 37f 22f
1:00 20 24 mph 1018.9mb 36f 22f
12:54 17 21 mph 1018.8mb 36f 22f
12:48 17 20 mph 1018.8mb 36f 22f
12:42 13 17 mph 1018.7mb 36f 22f
12:36 16 20 mph 1018.7mb 36f 22f
12:30 17 20 mph 1018.6mb 36f 22f
12:24 18 22 mph 1018.4mb 36f 22f
12:18 15 20 mph 1018.3mb 36f 22f
12:12 17 24 mph 1018.3mb 36f 22f
12:06 20 25 mph 1018.2mb 36f 22f
12:00 21 24 mph 1018.1mb 36f 22f
ven. 02/05 11:54 17 25 mph 1018mb 36f 23f
11:48 21 28 mph 1017.7mb 36f 23f
11:42 21 28 mph 1017.7mb 36f 23f
11:36 23 28 mph 1017.6mb 36f 23f
11:30 23 30 mph 1017.5mb 36f 23f
11:24 24 31 mph 1017.3mb 36f 23f
11:18 23 32 mph 1017.2mb 36f 23f
11:12 25 30 mph 1016.9mb 36f 23f
11:06 22 30 mph 1016.7mb 36f 23f
11:00 23 29 mph 1016.6mb 36f 23f
10:54 21 32 mph 1016.5mb 36f 23f
10:48 24 31 mph 1016.4mb 36f 23f
10:42 28 37 mph 1016.2mb 36f 22f
10:36 25 33 mph 1016mb 36f 22f
10:30 23 30 mph 1015.9mb 37f 23f
10:24 22 30 mph 1015.7mb 36f 23f
10:18 25 34 mph 1015.6mb 37f 23f
10:12 24 34 mph 1015.5mb 36f 23f
10:06 26 33 mph 1015.4mb 36f 23f
10:00 25 30 mph 1015.4mb 36f 24f
9:54 24 30 mph 1015.3mb 36f 24f
9:48 21 25 mph 1015.2mb 37f 24f
9:42 21 25 mph 1015.3mb 36f 24f
9:36 21 26 mph 1015.2mb 37f 24f
9:30 21 29 mph 1015.1mb 37f 24f
9:24 22 26 mph 1014.9mb 37f 24f
9:18 21 28 mph 1014.8mb 36f 24f
9:12 21 29 mph 1014.8mb 36f 24f
9:06 18 31 mph 1014.7mb 37f 24f
9:00 23 31 mph 1014.6mb 36f 24f
8:54 22 31 mph 1014.5mb 36f 25f
8:48 26 37 mph 1014.3mb 37f 24f
8:42 25 34 mph 1014.1mb 37f 24f
8:36 25 33 mph 1013.9mb 37f 25f
8:30 22 33 mph 1013.8mb 37f 25f
8:24 24 33 mph 1013.7mb 37f 25f
8:18 20 28 mph 1013.5mb 37f 25f
8:12 20 33 mph 1013.6mb 37f 25f
8:06 21 29 mph 1013.5mb 37f 25f
8:00 22 32 mph 1013.3mb 37f 25f
7:54 22 31 mph 1013.2mb 36f 25f
7:48 23 33 mph 1013mb 36f 25f
7:42 24 36 mph 1012.7mb 36f 25f
7:36 22 33 mph 1012.7mb 37f 25f
7:30 18 26 mph 1012.4mb 36f 26f
7:24 18 24 mph 1012.3mb 36f 26f
7:18 21 34 mph 1012.3mb 35f 26f
7:12 24 33 mph 1012.1mb 37f 26f
7:06 26 34 mph 1011.9mb 35f 26f
7:00 22 30 mph 1011.9mb 36f 26f
5:48  -  mph - 37f 28f
5:42  -  mph - 37f 27f
5:36  -  mph - 37f 28f
5:30 17 23 mph 1011.3mb 37f 28f
5:24 15 33 mph 1010.7mb 37f 28f
5:18  -  mph 1010.6mb 37f 28f
5:12  -  mph 1011mb 37f 28f
5:06  -  mph 1010.4mb 37f 28f
5:00 16 25 mph 1009.8mb 37f 28f
4:54 15 23 mph 1011.1mb 37f 28f
4:48  -  mph 1011.6mb 37f 28f
4:42  -  mph 1011.2mb 37f 29f
4:36  -  mph 1011.3mb 38f 29f
4:30 14 22 mph 1011.2mb 37f 29f
4:24 13 23 mph 1011.6mb 38f 29f
4:18 14 25 mph 1011.9mb 38f 29f
4:12 16 24 mph 1011.9mb 38f 29f
4:06 11 21 mph 1012mb 38f 29f
4:00 11 23 mph 1011.7mb 38f 29f
3:54 14 24 mph 1011.3mb 37f 29f
3:48 15 24 mph 1011.3mb 38f 29f
3:42 13 22 mph 1011.4mb 37f 29f
3:36 14 22 mph 1011.2mb 37f 30f
3:30 14 21 mph 1011.4mb 37f 30f
3:18 15 24 mph 1011.1mb 37f 30f
3:12 14 20 mph 1011mb 37f 30f
3:06 15 23 mph 1011mb 37f 30f
3:00 15 20 mph 1010.8mb 37f 30f
2:54 13 17 mph 1010.4mb 37f 30f
2:48 13 18 mph 1010.8mb 37f 30f
2:42 14 21 mph 1010.7mb 37f 30f
2:36 14 22 mph 1010.6mb 37f 30f
2:30 14 23 mph 1010.7mb 37f 30f
2:12 14 21 mph 1010.1mb 37f 30f
2:06 13 18 mph 1009.9mb 37f 30f
2:00 10 22 mph 1009.9mb 37f 30f
1:54 11 21 mph 1010.2mb 37f 30f
1:48 11 17 mph 1010.7mb 37f 30f
1:42 10 22 mph 1010.8mb 38f 30f
1:30 13 23 mph 1011.1mb 37f 30f
1:18 16 21 mph 1011.7mb 38f 30f
1:12 13 22 mph 1012mb 37f 30f
1:06 14 20 mph 1012.1mb 38f 30f
1:00 15 20 mph 1012.6mb 38f 30f
12:48 11 17 mph 1012.7mb 38f 31f
12:42 10 15 mph 1012.9mb 38f 31f
12:30 11 18 mph 1012.9mb 38f 31f
12:24 9 14 mph 1012.9mb 38f 31f
12:00 8 10 mph 1013.6mb 38f 31f
11:54 8 14 mph 1013.8mb 38f 31f
11:48 7 14 mph 1013.8mb 38f 31f
11:42 8 11 mph 1013.9mb 38f 31f
11:36 7 13 mph 1014mb 38f 31f
11:30 9 14 mph 1014.4mb 38f 31f
11:24 10 14 mph 1014.7mb 38f 31f
11:18 9 13 mph 1015.1mb 38f 31f
11:12 9 14 mph 1015.2mb 38f 31f
11:06 9 16 mph 1015.3mb 38f 31f
11:00 11 16 mph 1015.5mb 38f 31f
10:54 10 15 mph 1016.3mb 38f 31f
10:48 8 13 mph 1016.4mb 38f 31f
10:42 11 17 mph 1016.2mb 38f 32f
10:36 8 13 mph 1016.2mb 38f 32f
10:30 8 13 mph 1016.7mb 38f 32f
10:18 6 13 mph 1016.9mb 38f 32f
10:12 6 9 mph 1017.3mb 38f 32f
10:06 5 7 mph 1017.8mb 38f 32f
9:54 8 14 mph 1017.3mb 38f 32f
9:48 14 17 mph 1016mb 38f 32f
9:42 14 17 mph 1015.3mb 38f 32f
9:36 14 17 mph 1015.8mb 38f 32f
9:30 11 17 mph 1015.6mb 38f 32f
9:24 14 18 mph 1015.3mb 38f 32f
9:18 10 14 mph 1015.7mb 38f 32f
9:12 9 10 mph 1016.4mb 38f 32f
9:06 5 9 mph 1017.3mb 38f 32f
9:00 8 11 mph 1017.2mb 38f 32f
8:54 8 15 mph 1017.1mb 38f 32f
8:48 9 11 mph 1017.2mb 38f 32f
8:42 11 15 mph 1017.2mb 38f 32f
8:36 10 13 mph 1017.2mb 39f 32f
8:30 7 14 mph 1017.5mb 39f 32f
8:24 9 13 mph 1017.5mb 39f 32f
8:18 10 14 mph 1017.7mb 39f 32f
8:12 9 13 mph 1017.8mb 39f 32f
8:06 8 11 mph 1017.9mb 39f 33f
8:00 6 9 mph 1017.6mb 39f 32f
7:54 8 10 mph 1017.6mb 39f 33f
7:48 5 8 mph 1017.4mb 39f 33f
7:42 6 8 mph 1017.2mb 39f 33f
7:36 6 11 mph 1017.3mb 39f 33f
7:30 3 9 mph 1017.5mb 39f 33f
7:24 6 7 mph 1017.6mb 39f 33f
7:18 6 8 mph 1017.5mb 39f 33f
7:12 6 8 mph 1017.6mb 39f 33f
7:06 5 8 mph 1017.5mb 39f 33f
7:00 6 7 mph 1017.3mb 39f 33f
6:54 5 7 mph 1017.2mb 39f 33f
6:48 5 8 mph 1017.3mb 39f 33f
6:42 5 7 mph 1017.4mb 39f 33f
6:36 6 8 mph 1017.4mb 39f 33f
6:30 5 6 mph 1017.5mb 39f 33f
6:18 3 7 mph 1017.4mb 39f 33f
6:12 3 6 mph 1017.4mb 39f 33f
6:06 3 7 mph 1017.5mb 39f 33f
6:00 3 8 mph 1017.7mb 39f 33f
5:54 3 8 mph 1017.7mb 39f 33f
5:48 5 8 mph 1017.6mb 39f 33f
5:42 7 9 mph 1017.7mb 39f 33f
5:36 9 13 mph 1017.5mb 39f 33f
5:30 8 14 mph 1017.5mb 39f 34f
5:24 8 14 mph 1017.6mb 39f 34f
5:18 7 14 mph 1017.7mb 39f 35f
5:12 9 14 mph 1017.9mb 39f 36f
5:06 8 11 mph 1018mb 39f 37f
5:00 3 7 mph 1017.9mb 39f 38f
4:48  -  mph - 39f 38f
4:42  -  mph - 39f 38f
4:36  -  mph - 39f 38f
4:30 3 6 mph 1017.3mb 39f 38f
4:24 3 5 mph 1017.2mb 39f 38f
4:18 5 6 mph 1017.2mb 39f 38f
4:12 5 6 mph 1017.4mb 39f 38f
4:06 5 6 mph 1017.3mb 39f 38f
4:00 5 6 mph 1017.3mb 39f 38f
3:54 3 6 mph 1017.3mb 39f 38f
3:48 6 7 mph 1017.4mb 39f 38f
3:42 5 6 mph 1017.6mb 39f 38f
3:36 5 6 mph 1017.3mb 39f 38f
3:30 2 5 mph 1017.1mb 39f 38f
3:24 3 6 mph 1017mb 39f 38f
3:18 2 3 mph 1016.9mb 39f 38f
3:12 2 6 mph 1017.1mb 39f 39f
3:06 2 5 mph 1017.1mb 39f 39f
3:00 2 6 mph 1017.2mb 39f 39f
2:54 3 5 mph 1017.2mb 39f 39f
2:48 2 5 mph 1017.5mb 39f 39f
2:42 3 7 mph 1017.5mb 39f 39f
2:36 5 6 mph 1017.8mb 39f 39f
2:30 5 7 mph 1017.6mb 39f 39f
2:24 6 7 mph 1017.7mb 39f 39f
2:18 6 9 mph 1018mb 39f 39f
2:12 8 9 mph 1018.5mb 39f 39f
2:06 8 9 mph 1018.7mb 39f 39f
2:00 8
mph
1018.4mb 39f 39f
1:54 7 8 mph 1018.1mb 39f 39f
1:48 7 8 mph - - -
1:42 6 7 mph - - -
1:36 7 9 mph - - -
1:30 7 8 mph 1017.9mb - 39f
1:24 7 8 mph 1017.3mb - 39f
1:18  -  mph 1017.1mb 39f 39f
1:12  -  mph 1016.7mb 39f 40f
1:06  -  mph 1017mb 39f 40f
1:00 6 8 mph 1016.3mb 39f 40f
12:54 6 9 mph 1016.5mb 39f 40f
12:48 7 8 mph 1016.6mb 39f 40f
12:42 6 10 mph 1016.4mb 39f 40f
12:36 8 11 mph 1016.4mb 39f 40f
12:30 8 9 mph 1016mb 39f 40f
12:24 7 8 mph 1016.1mb 39f 40f
12:18 8 9 mph 1016.7mb 39f 40f
12:12 6 7 mph 1016.7mb 39f 40f
12:06 6 7 mph 1016.6mb 39f 40f
12:00 7
mph
1016.7mb 39f 40f
jeu. 02/04 11:54 6 7 mph 1016.5mb 39f 40f
11:48 6 7 mph 1016.3mb 39f 41f
11:42 6 7 mph 1016.3mb 39f 41f
11:36 6 7 mph 1016.4mb 39f 41f
11:30 6 7 mph 1016.7mb 39f 41f
11:24 6 7 mph 1016.7mb 39f 41f
11:18 5 8 mph 1016.4mb 39f 41f
11:12 6 9 mph 1016.8mb 39f 42f
11:06 6 9 mph 1016.9mb 39f 42f
11:00 7 9 mph 1017.1mb 39f 42f
10:54 7 8 mph 1017.1mb 39f 42f
10:48 7 8 mph 1017.3mb 39f 42f
10:42 6 7 mph 1017.2mb 39f 42f
10:36 6 7 mph 1017mb 39f 42f
10:30 5 7 mph 1016.7mb 39f 42f
10:24 5 7 mph 1016.9mb 39f 42f
10:18 6 7 mph 1017.1mb 39f 42f
10:12 6 7 mph 1017.2mb 39f 43f
10:06 3 6 mph 1017.4mb 39f 42f
10:00 3 6 mph 1017.6mb 39f 42f
9:54 3 5 mph 1017.5mb 39f 42f
9:48 5 6 mph 1017.5mb 39f 42f
9:42 5 6 mph 1017.8mb 39f 43f
9:36 3 5 mph 1017.9mb 39f 43f
9:30 2 6 mph 1017.9mb 39f 43f
9:24 6 8 mph 1018mb 39f 43f
9:18 8 9 mph 1017.4mb 39f 42f
9:12 6 7 mph 1017.9mb 39f 43f
9:06 5 6 mph 1017.8mb 39f 43f
9:00 3 6 mph 1017.4mb 39f 43f
8:54 3 5 mph 1017.3mb 39f 43f
8:48 2 3 mph 1017.1mb 39f 43f
8:42 2 5 mph 1017mb 39f 43f
8:36 5 6 mph 1016.9mb 39f 43f
8:30 5 7 mph 1016.7mb 39f 43f
8:24 6
mph
1016.4mb 39f 43f
8:18 6
mph
1016.7mb 39f -
8:12 6 9 mph 1016.7mb 39f -
8:06 7 9 mph 1016.8mb 39f -
8:00 8 9 mph 1016.7mb 39f 43f
7:54 8 10 mph 1016.7mb 39f 43f
7:48 8 9 mph 1016.5mb 39f 43f
7:42 7 10 mph 1016.3mb 39f 43f
7:36 8 10 mph 1016.1mb 39f 43f
7:30 9 11 mph 1016.2mb - 43f
7:24 9 10 mph 1015.9mb - 43f
7:18 9 14 mph 1015.9mb 39f 43f
7:12 10 14 mph 1016mb 39f 44f
7:06 8 15 mph 1015.9mb 39f 42f
7:00 3
mph
1015.7mb 39f 42f
6:54 1 2 mph 1015.5mb 38f 42f
6:48  -  1 mph 1015.4mb 38f -
6:42  -  2 mph 1015.5mb 38f -
6:36 2
mph
1015.5mb 38f -
6:30 1 2 mph 1015.6mb 38f 44f
6:24  -  1 mph 1015.4mb 38f 45f
6:18 1 2 mph 1015.4mb 38f 46f
6:12 1 2 mph 1015.4mb 38f 46f
6:06 1 3 mph 1015.3mb 38f 47f
6:00 2
mph
- 38f 46f
5:54 2 3 mph - 38f 46f
5:48 1 2 mph 1014.9mb 38f 47f
5:42 2
mph
1014.9mb 38f 46f
5:36 2
mph
1014.7mb 38f 47f
5:30 2 3 mph 1014.4mb 38f 47f
5:24 3
mph
1014.3mb 38f 46f
5:18 2
mph
1014.2mb 38f 46f
5:12 2
mph
1014mb 38f 47f
5:06 2 3 mph 1013.9mb 38f 47f
5:00 3
mph
1014mb - 47f
4:54 2 3 mph 1014mb - 47f
4:48 3 5 mph 1014mb 38f 47f
4:42 3 5 mph 1014mb 38f 47f
4:36 5 6 mph 1013.8mb 38f 47f
4:30 3 5 mph 1013.9mb 38f 46f
4:24 3 6 mph 1013.6mb 39f 45f
4:18 5 6 mph 1013.3mb 39f 46f
4:12 6 7 mph 1013.1mb 39f 47f
4:06 7
mph
1013mb 39f 48f
4:00 7 8 mph 1013mb 39f 49f
3:54 7 9 mph 1012.8mb 38f 49f
3:48 7 9 mph 1012.8mb 39f 49f
3:42 8 10 mph 1012.5mb 38f 49f
3:36 9 11 mph 1012.5mb 38f 49f
3:30 8 10 mph 1012.3mb 38f 49f
3:24 9 10 mph 1012.3mb 39f 49f
3:18 8 9 mph 1012.3mb 39f 49f
3:12 9 11 mph 1012.1mb 39f 50f
3:06 9 11 mph 1011.9mb 39f 49f
3:00 8 9 mph 1011.9mb 39f 49f
2:54 7 8 mph 1011.9mb 39f 49f
2:48 7 8 mph 1011.7mb 39f 49f
2:42 8 9 mph 1011.7mb 39f 50f
2:36 7 9 mph 1011.5mb 39f 50f
2:30 9 11 mph 1011.4mb 39f 50f
2:24 9
mph
1011.5mb 39f 50f
2:18 9 10 mph 1011.4mb 39f 50f
2:12 8 9 mph 1011.2mb 39f 50f
2:06 7 8 mph 1011.1mb 39f 50f
2:00 8 9 mph 1011.1mb 39f 51f
1:54 7 8 mph 1011mb 39f 50f
1:48 6 8 mph 1010.9mb 38f 50f
1:42 7 10 mph 1010.8mb 38f 50f
1:36 8 10 mph 1010.7mb 38f 50f
1:30 8 9 mph 1010.8mb 38f 51f
1:24 7 9 mph 1010.8mb 38f 51f
1:18 7 8 mph 1010.8mb 38f 51f
1:12 6 7 mph 1010.8mb 38f 51f
1:06 6 8 mph 1010.9mb 38f 51f
1:00 6 8 mph 1010.9mb 38f 51f
12:54 5 7 mph 1010.8mb 38f 51f
12:48 5 6 mph 1010.8mb 38f 50f
12:42 5 7 mph 1010.6mb 38f 51f
12:36 3 6 mph 1010.8mb 38f 50f
12:30 5 7 mph 1010.6mb 38f 50f
12:24 3 5 mph 1010.6mb 38f 50f
12:18 3 6 mph 1010.7mb 38f 50f
12:12 3 6 mph 1010.6mb 38f 50f
12:06 5 6 mph 1010.7mb 38f 50f
12:00 6 7 mph 1010.8mb 38f 49f
11:54 5
mph
1010.8mb 38f 50f
11:48 3 6 mph 1010.9mb 38f 50f
11:42 5 6 mph 1011mb 38f 49f
11:36 6 7 mph 1011.1mb 38f 49f
11:30 6 7 mph 1011.2mb 38f 49f
11:24 6 8 mph 1011.6mb 38f 49f
11:18 7 9 mph 1011.6mb 38f 49f
11:12 7 8 mph 1011.6mb 38f 49f
11:06 6 11 mph 1011.4mb 38f 49f
11:00 9 10 mph 1011.5mb 38f 50f
10:54 8 13 mph 1011.1mb 38f 49f
10:48 8 11 mph 1011.4mb 38f 49f
10:42 6 11 mph 1011.2mb 38f 50f
10:36 10 13 mph 1011.4mb 38f 50f
10:30 8 13 mph 1011.7mb 39f 49f
10:24 7 13 mph 1011.5mb 39f 50f
10:18 8 13 mph 1011.3mb 39f 50f
10:12 9 15 mph 1011.1mb 39f 50f
10:06 10 16 mph 1011.1mb 39f 50f
10:00 10 16 mph 1010.8mb 39f 50f
9:54 11 15 mph 1010.7mb 39f 51f
9:48 10 17 mph 1010.7mb 38f 51f
9:42 14 17 mph 1010.7mb 38f 51f
9:36 11 17 mph 1010.5mb 38f 51f
9:30 13 17 mph 1010.3mb 38f 51f
9:24 11 15 mph 1010.4mb 38f 51f
9:18 11 15 mph 1010.7mb 38f 51f
9:12 13 16 mph 1010.8mb 38f 52f
9:06 10 15 mph 1010.6mb 38f 52f
9:00 10 15 mph 1010.3mb 38f 52f
8:54 10 15 mph 1010.4mb 38f 52f
8:48 9 18 mph 1010.3mb 38f 51f
8:42 13 18 mph 1010.3mb 38f 51f
8:36 13 20 mph 1010.1mb 39f 51f
8:30 14 18 mph 1010mb 39f 51f
8:24 13 18 mph 1010.1mb 39f 52f
8:18 10 16 mph 1010.3mb 38f 53f
8:12 16 22 mph 1010.3mb 39f 53f
8:06 14 20 mph 1010.2mb 38f 54f
8:00 10 16 mph 1010.1mb 39f 54f
7:54 11 20 mph 1009.8mb 39f 54f
7:48 11 17 mph 1009.7mb 39f 54f
7:42 9 18 mph 1009.4mb 39f 54f
7:36 15 22 mph 1009.7mb 39f 54f
7:30 14 20 mph 1009.8mb 39f 55f
7:24 14 18 mph 1009.8mb 39f 55f
7:18 11 16 mph 1009.9mb 39f 55f
7:12 14 25 mph 1009.8mb 39f 55f
7:06 11 20 mph 1009.7mb 38f 55f
7:00 16 23 mph 1009.5mb 38f 55f
6:54 15 18 mph 1009.6mb 38f 55f
6:48 15 23 mph 1009.4mb 38f 55f
6:42 15 22 mph 1009.4mb 38f 56f
6:36 13 18 mph 1009.5mb 38f 55f
6:30 10 20 mph 1009.5mb 38f 55f
6:24 14 23 mph 1009.5mb 38f 55f
6:18 15 23 mph 1009.5mb 38f 55f
6:12 11 21 mph 1009.6mb 38f 54f
6:06 10 21 mph 1009.5mb 38f 54f
6:00 10 16 mph 1009.4mb 38f 54f
5:54 10 16 mph 1009.5mb 38f 54f
5:48 9 21 mph 1009.4mb 38f 54f
5:42 10 17 mph 1009.3mb 38f 54f
5:36 8 16 mph 1009.3mb 38f 54f
5:30 9 15 mph 1009.2mb 38f 54f
5:24 8 16 mph 1009.2mb 38f 55f
5:18  -  mph - - 55f
5:12  -  mph - - 54f
5:06  -  mph - - 55f
5:00 15 22 mph - - -
4:54 13 21 mph - - -
4:48  -  mph - - 56f
4:42  -  mph - - 56f
4:36  -  mph - - 56f
4:30 13 22 mph 1008.8mb 38f 56f
4:24 11 17 mph 1008.8mb 38f 55f
4:18 14 20 mph 1008.9mb 38f 54f
4:12 10 16 mph 1009mb 38f 54f
4:06 14 24 mph 1009mb 38f 54f
4:00 16 24 mph 1008.9mb 38f 54f
3:54 16 22 mph 1009mb 38f 54f
3:48 11 22 mph 1009mb 38f 53f
3:42 15 22 mph 1008.9mb 38f 54f
3:36 13 22 mph 1008.9mb 38f 54f
3:30 10 26 mph 1009mb 38f 53f
3:24 17 23 mph 1009mb 38f 53f
3:18 13 26 mph 1009.2mb 38f 53f
3:12 17 28 mph 1009.2mb 38f 53f
3:06 18 30 mph 1009.1mb 38f 53f
3:00 16 30 mph 1009.1mb 38f 53f
2:54 17 32 mph 1009.1mb 38f 53f
2:48 14 34 mph 1009.2mb 38f 53f
2:42 15 26 mph 1009.2mb 38f 53f
2:36 15 28 mph 1009.3mb 38f 53f
2:30 18 33 mph 1009.4mb 38f 53f
2:24 15 30 mph 1009.3mb 38f 53f
2:18 14 29 mph 1009.5mb 38f 53f
2:12 16 30 mph 1009.6mb 38f 53f
2:06 14 25 mph 1009.5mb 38f 53f
2:00 10 22 mph 1009.6mb 38f 53f
1:54 21 34 mph 1009.5mb 38f 53f
1:48 11 28 mph 1009.7mb 38f 53f
1:42 17 28 mph 1009.7mb 38f 53f
1:36 15 28 mph 1009.7mb 38f 53f
1:30 13 24 mph 1009.9mb 38f 53f
1:24 16 26 mph 1010mb 38f 54f
1:18 13 32 mph 1010.1mb 38f 54f
1:12 13 25 mph 1009.7mb 38f 54f
1:06 13 26 mph 1009.8mb 38f 54f
1:00 20 31 mph 1009.7mb 38f 55f
12:54 17 30 mph 1009.5mb 38f 55f
12:48 15 24 mph 1009.1mb 38f 55f
12:42 20 32 mph 1009.3mb 38f 55f
12:36 18 31 mph 1009.1mb 38f 54f
12:30 17 30 mph 1009mb 38f 54f
12:24 13 23 mph 1008.7mb 38f 54f
12:18 14 23 mph 1008.7mb 38f 54f
12:12 15 24 mph 1008.8mb 38f 54f
12:06 13 28 mph 1008.9mb 38f 53f
12:00 15 24 mph 1009.5mb 38f 53f
mer. 02/03 11:54 11 28 mph 1009mb 38f 52f
11:48 11 30 mph 1009.2mb 38f 52f
11:36 15 34 mph 1009.2mb 38f 52f
11:30 15 28 mph 1009.3mb 38f 52f
11:24 14 33 mph 1009.8mb 38f 52f
11:18 15 29 mph 1009.6mb 38f 52f
11:12 11 25 mph 1009.5mb 38f 52f
11:06 11 24 mph 1009.6mb 38f 52f
11:00 17 31 mph 1009.9mb 38f 53f
10:54 18 31 mph 1010.1mb 38f 53f
10:48 20 32 mph 1010.5mb 38f 53f
10:42 15 26 mph 1010.5mb 38f 53f
10:36 15 26 mph 1010.8mb 38f 53f
10:30 18 29 mph 1010.6mb 38f 52f
10:24 13 28 mph 1011mb 38f 52f
10:12 14 30 mph 1010.8mb 38f 52f
10:06 14 29 mph 1011.4mb 38f 52f
10:00 17 38 mph 1011.1mb 38f 52f
9:54 17 30 mph 1011.2mb 38f 52f
9:48 16 36 mph 1011.1mb 38f 52f
9:42 11 36 mph 1010.7mb 38f 51f
9:36 15 32 mph 1010.5mb 38f 51f
9:30 21 32 mph 1010.4mb 38f 51f
9:24 14 34 mph 1010.7mb 38f 51f
9:18 13 31 mph 1010.9mb 38f 51f
9:12 17 38 mph 1010.7mb 38f 51f
9:06 18 33 mph 1010.7mb 38f 51f
9:00 21 33 mph 1010.9mb 38f 50f
8:54 15 30 mph 1010.8mb 38f 50f
8:48 20 31 mph 1011.1mb - 50f
8:42 17 32 mph 1011.2mb - 50f
8:36 21 44 mph 1011.5mb - 50f
8:30 18 39 mph 1011.8mb 38f 50f
8:18 16 33 mph 1012.1mb 38f 49f
8:12 20 32 mph 1012.2mb 38f 49f
8:06 21 33 mph 1012.7mb 38f 49f
8:00 20 34 mph 1012.4mb 38f 49f
7:54 15 25 mph 1012.3mb 38f 48f
7:48 20 30 mph 1012.5mb 38f 48f
7:42 21 33 mph 1012.7mb 38f 47f
7:36 20 30 mph 1012.8mb 38f 47f
7:30 18 31 mph 1012.9mb 38f 46f
7:24 20 32 mph 1013.2mb 38f 46f
7:18 17 28 mph 1013.5mb 38f 46f
7:12 14 23 mph 1013.5mb 38f 46f
7:06 17 26 mph 1013.6mb 38f 46f
7:00 17 29 mph 1014.1mb 38f 45f
6:54 13 30 mph 1014mb 38f 45f
6:48 14 29 mph - 38f 45f
6:42 18 29 mph - 38f 44f
6:36 15 30 mph - 38f 44f
6:30 17 32 mph 1014.8mb 38f 44f
6:24 17 24 mph 1015.1mb 38f 44f
6:18  -  mph 1015.4mb 38f 44f
6:12  -  mph 1015.7mb 38f 44f
6:06  -  mph 1015.8mb 38f 44f
6:00 16 26 mph 1016.1mb 38f 43f
5:54 14 26 mph 1016.2mb 38f 43f
5:48 17 24 mph - 37f -
5:42 15 21 mph - 37f -
5:36 15 29 mph - 37f -
5:30 15 29 mph 1016.9mb 37f 42f
5:18 15 22 mph 1017.2mb 37f 42f
5:12 15 24 mph 1017.4mb 37f 42f
5:06 15 25 mph 1017.5mb 37f 42f
5:00 14 26 mph 1017.5mb 37f 42f
4:54 14 24 mph 1017.6mb 37f 41f
4:48 13 23 mph 1017.8mb 37f 41f
4:42 15 23 mph 1018.1mb 37f 41f
4:36 14 25 mph 1018.1mb 37f 41f
4:30 14 23 mph 1018.2mb 37f 40f
4:18 14 26 mph 1018mb 37f 40f
4:12 15 23 mph 1018.1mb 37f 40f
4:06 17 28 mph 1018.2mb 37f 40f
4:00 15 29 mph 1018.5mb 37f 39f
3:54 14 22 mph 1018.5mb 37f 39f
3:48 10 29 mph 1018.5mb 37f 39f
3:42 16 24 mph 1018.5mb 37f 39f
3:36 17 29 mph 1018.7mb 37f 39f
3:30 14 23 mph 1018.8mb 37f 39f
3:24 14 23 mph 1019mb 37f 39f
3:18 13 25 mph 1019.1mb 37f 38f
3:12 14 24 mph 1019.1mb 37f 38f
3:06 14 21 mph 1019.1mb 37f 38f
3:00 16 24 mph 1019.4mb 37f 38f
2:54 15 23 mph 1019.5mb 37f 38f
2:48 15 26 mph 1019.8mb 37f 38f
2:42 14 21 mph 1019.8mb 37f 38f
2:36 11 23 mph 1020mb 37f 38f
2:30 10 23 mph 1020.2mb 37f 38f
2:24 13 25 mph 1020.4mb 37f 38f
2:18 9 25 mph 1020.5mb 37f 38f
2:12 13 22 mph 1020.8mb 37f 38f
2:06 9 20 mph 1021mb 37f 38f
2:00 11 18 mph 1021.3mb 37f 38f
1:54 11 24 mph 1021.6mb 37f 38f
1:48 13 22 mph 1021.9mb 37f 38f
1:42 15 24 mph 1022mb 37f 38f
1:36 10 17 mph 1022.1mb 37f 38f
1:30 10 18 mph 1022.4mb 37f 37f
1:24 13 23 mph 1022.4mb 37f 37f
1:18 7 14 mph 1022.5mb 37f 37f
1:12 13 20 mph 1022.6mb 37f 38f
1:06 8 16 mph 1022.8mb 37f 37f
1:00 9 15 mph 1023.1mb 37f 37f
12:54 11 21 mph 1023mb 37f 38f
12:48 8 21 mph 1023.1mb 37f 38f
12:42 11 20 mph 1023.4mb 37f 38f
12:36 13 23 mph 1023.6mb 37f 38f
12:30 14 21 mph 1023.8mb 37f 39f
12:24 13 18 mph 1024mb 37f 39f
12:18 13 21 mph 1024.5mb 37f 39f
12:12 14 22 mph 1024.8mb 37f 39f
12:06 11 20 mph 1025.1mb 37f 39f
12:00 10 22 mph 1025.3mb 37f 39f
11:54 11 17 mph 1025.5mb 37f 39f
11:48 8 20 mph 1025.7mb 37f 38f
11:42 10 18 mph 1025.8mb 37f 38f
11:36 9 16 mph 1025.9mb 37f 38f
11:30 10 18 mph 1026.2mb 37f 38f
11:24 11 22 mph 1026.4mb 37f 38f
11:18 11 18 mph 1026.6mb 37f 38f
11:12 11 18 mph 1026.8mb 37f 38f
11:06 9 16 mph 1027.1mb 37f 38f
11:00 10 22 mph 1027.1mb 37f 38f
10:54 9 23 mph 1027mb 37f 38f
10:48 13 18 mph 1027mb 37f 38f
10:42 13 20 mph 1027.1mb 37f 38f
10:36 13 23 mph 1027.4mb 37f 38f
10:30 11 18 mph 1027.6mb 37f 38f
10:24 10 21 mph 1027.6mb 37f 38f
10:18 8 17 mph 1027.9mb 37f 38f
10:12 13 22 mph 1027.8mb 37f 38f
10:06 10 22 mph 1027.9mb 37f 38f
10:00 15 23 mph 1027.8mb 37f 38f
9:54 13 20 mph 1027.6mb 37f 38f
9:48 13 23 mph 1027.5mb 37f 38f
9:42 13 24 mph 1027.5mb 37f 38f
9:36 15 25 mph 1027.7mb 37f 38f
9:30 11 23 mph 1027.8mb 37f 38f
9:24 11 20 mph 1027.8mb 37f 38f
9:18 7 15 mph 1027.8mb 37f 37f
9:12 6 13 mph 1027.9mb 37f 37f
9:06 6 16 mph 1027.9mb 37f 37f
9:00 7 14 mph 1028mb 37f 37f
8:54 7 14 mph 1028mb 37f 37f
8:48 7 17 mph 1027.8mb 37f 37f
8:42 8 15 mph 1027.9mb 37f 37f
8:36 7 13 mph 1028.1mb 37f 37f
8:30 7 15 mph 1028.2mb 37f 36f
8:24 10 22 mph 1028.2mb 37f 36f
8:18 18 24 mph 1028.3mb 37f 36f
8:12 16 25 mph 1028.1mb 37f 36f
8:06 17 24 mph 1028.4mb 37f 36f
8:00 14 28 mph 1028.4mb 37f 35f
7:54 21 25 mph 1028.4mb 37f 35f
7:48 16 22 mph 1028.8mb 37f 35f
7:42 18 24 mph 1029mb 37f 35f
7:36 10 15 mph 1029.2mb 37f 35f
7:30 6 10 mph 1029.5mb 37f 32f
7:24  -  3 mph 1029.6mb 37f 29f
7:18 3 5 mph 1029.9mb 37f 29f
7:12 2 3 mph 1030.1mb 37f 29f
7:06 2 6 mph 1030.1mb 37f 29f
7:00 3 6 mph 1029.9mb 37f 29f
6:54 5 6 mph 1030mb 37f 29f
6:48 5 6 mph 1030.1mb 37f 29f
6:42 3 6 mph 1029.8mb 37f 29f
6:36 6
mph
1029.9mb 37f 29f
6:30 5 6 mph 1030.3mb 37f 29f
6:24 6 7 mph 1030.4mb 37f 29f
6:18 6 7 mph 1030.4mb 37f 28f
6:12 7 8 mph 1030.3mb 37f 28f
6:06 6 7 mph 1030.8mb 37f 28f
6:00 6 7 mph 1030.7mb 38f 28f
5:54 6 7 mph 1030.9mb 38f 28f
5:48 6
mph
1030.7mb 38f 28f
5:42 6 7 mph 1030.7mb 38f 28f
5:36 7 8 mph 1030.6mb 38f 28f
5:30 6 7 mph 1030.7mb 38f 28f
5:24 5 6 mph 1030.8mb 38f 28f
5:18 6 7 mph 1030.7mb 38f 28f
5:12 5 6 mph 1030.6mb 38f 28f
5:06 2 3 mph 1030.6mb 38f 28f
5:00 2 3 mph 1030.8mb 38f 28f
4:54 3 5 mph 1030.9mb 38f 28f
4:48  -  mph - 38f 28f
4:42  -  mph - 38f 28f
4:36  -  mph - 38f 28f
4:30 6 7 mph 1031mb 38f 28f
4:24 2 5 mph 1031.1mb 38f 28f
4:18 3 5 mph 1031mb 38f 28f
4:12 3 6 mph 1030.8mb 38f 28f
4:06 3 5 mph 1030.7mb 38f 28f
4:00 2 3 mph 1030.8mb 38f 27f
3:54 1 5 mph 1030.8mb 38f 27f
3:48 2 5 mph 1030.7mb 38f 27f
3:42 5 6 mph 1030.6mb 38f 27f
3:36 3 6 mph 1030.9mb 38f 27f
3:30 3 5 mph 1031.1mb 38f 27f
3:24 3 5 mph 1030.9mb 38f 27f
3:18 3 5 mph 1030.9mb 38f 27f
3:12  -  3 mph 1031.1mb 38f 27f
3:06 2 5 mph 1031mb 38f 27f
3:00 3 6 mph 1030.9mb 38f 27f
2:54 5 7 mph 1030.9mb 38f 27f
2:48 7 9 mph 1030.8mb 38f 27f
2:42 9 13 mph 1030.6mb 38f 27f
2:36 10 11 mph 1030.8mb 38f 26f
2:30 10 11 mph 1030.6mb 38f 27f
2:24 9 11 mph 1030.6mb 38f 27f
2:18 7 9 mph 1030.8mb 38f 27f
2:12 8 11 mph 1031.1mb 38f 27f
2:06 9 11 mph 1031.1mb 38f 27f
2:00 8 13 mph 1030.7mb 38f 28f
1:54 9 14 mph 1030.6mb 38f 27f
1:48 10 13 mph 1030.6mb 38f 27f
1:42 9 11 mph 1030.7mb 38f 27f
1:36 10 13 mph 1030.7mb 38f 27f
1:30 8 10 mph 1030.6mb 38f 28f
1:24 7 9 mph 1030.7mb 38f 28f
1:18 7 9 mph 1030.7mb 38f 28f
1:12 6 9 mph 1030.8mb 38f 28f
1:06 6 9 mph 1030.8mb 38f 28f
1:00 7 9 mph 1030.8mb 38f 28f
12:54 7 9 mph 1031mb 38f 28f
12:48 7 9 mph 1031mb 38f 28f
12:42 7 10 mph 1030.9mb 38f 28f
12:36 7 9 mph 1030.7mb 38f 28f
12:30 6 8 mph 1030.8mb 38f 28f
12:24 7 9 mph 1030.8mb 38f 28f
12:18 7 8 mph 1030.9mb 38f 29f
12:12 6 10 mph 1030.9mb 38f 29f
12:06 7 9 mph 1031.1mb 38f 29f
12:00 7 9 mph 1031mb 38f 29f
mar. 02/02 11:54 6 8 mph 1031mb 38f 29f
11:48 7 10 mph 1031mb 38f 29f
11:42 8 10 mph 1031mb 38f 29f
11:36 8 10 mph 1030.8mb 38f 29f
11:30 11 13 mph 1030.6mb 38f 29f
11:24 8 11 mph 1030.6mb 38f 29f
11:18 9 10 mph 1030.3mb 38f 30f
11:12 8 11 mph 1030.4mb 38f 30f
11:00 8 10 mph 1030.3mb 38f 30f
10:54 9 10 mph 1030.4mb 38f 30f
10:48 8 10 mph 1030.4mb 38f 30f
10:42 9 10 mph 1030.4mb 38f 30f
10:36 9 11 mph 1030.5mb 38f 30f
10:30 3 5 mph 1030.5mb 38f 31f
10:24 2 5 mph 1030.6mb 38f 31f
10:18 3 5 mph 1030.7mb 38f 31f
10:12 3 5 mph 1030.6mb 38f 31f
10:06 5 6 mph 1030.6mb 38f 31f
10:00 5 6 mph 1030.7mb 38f 31f
9:54 3 6 mph 1030.5mb 38f 31f
9:48 2 5 mph 1030.5mb 38f 31f
9:42 3 6 mph 1030.4mb 38f 31f
9:30  -  mph 1030mb 38f 31f
9:18 5 8 mph 1030mb 38f 31f
9:12 3 7 mph 1029.9mb 38f 31f
9:00 6 10 mph - 38f 31f
8:54 6 9 mph - 38f 31f
8:36 6 8 mph 1029.9mb 38f 32f
8:30 5 6 mph 1029.9mb 38f 32f
8:12 6 8 mph 1029.9mb 38f 32f
8:06 6 9 mph 1029.9mb 38f 32f
8:00  -  mph 1029.9mb 38f 32f
7:54  -  mph 1030mb 38f 32f
7:48 6 10 mph 1029.8mb 38f 32f
7:30  -  mph 1029.5mb 38f 33f
7:24  -  mph 1029.5mb 38f 33f
7:18 7 9 mph 1029.4mb 38f 33f
7:06 6 11 mph 1029.2mb 38f 33f
7:00 9 14 mph 1029.1mb 38f 33f
6:54 9 14 mph 1028.9mb 38f 33f
6:48 8 15 mph 1028.8mb 38f 33f
6:42 9 13 mph 1028.7mb 38f 33f
6:36 10 16 mph 1028.6mb 38f 33f
6:30 7 11 mph 1028.4mb 38f 34f
6:24 6 14 mph 1028.2mb 38f 34f
6:18 8 13 mph 1028.2mb 38f 34f
6:12 8 14 mph 1028.1mb 38f 34f
6:06 7 11 mph 1028mb 38f 34f
6:00 6 14 mph 1027.8mb 38f 34f
5:54 6 13 mph 1027.7mb 38f 35f
5:48 7 11 mph 1027.5mb 38f 35f
5:42 7 11 mph 1027.3mb 38f 35f
5:36 7 11 mph 1027.2mb 38f 35f
5:30 7 13 mph 1027mb 38f 35f
5:24 6 10 mph 1026.8mb 38f 36f
4:54  -  mph 1025.9mb 39f 36f
4:48 5 10 mph 1025.7mb 38f 37f
4:36 8 14 mph 1025.4mb 38f 37f
4:18 6 13 mph 1025.1mb 38f 37f
3:42 6 9 mph 1024.5mb 38f 38f
3:36 8 13 mph 1024.4mb 38f 38f
3:24 9 15 mph 1024.4mb 38f 38f
3:12 9 15 mph 1024.2mb 38f 38f
3:06 7 11 mph 1024.2mb 38f 38f
3:00 8 11 mph 1024.3mb 38f 38f
2:54 9 13 mph 1024.3mb 38f 38f
2:48 8 14 mph 1024.2mb 38f 38f
2:42 10 15 mph 1024.2mb 38f 39f
2:12 11 18 mph 1023.7mb 38f 38f
2:00 10 14 mph 1023.6mb 38f 37f
1:48 8 13 mph 1023.3mb 38f 38f
1:42 9 15 mph 1023.2mb 38f 37f
1:18 10 14 mph 1023.2mb 38f 37f
1:12 8 13 mph 1023.2mb 38f 37f
1:00 8 13 mph 1023.1mb 37f 37f
12:54 10 14 mph 1023.1mb 37f 36f
12:48 8 14 mph 1023.1mb 37f 36f
12:42 7 14 mph 1023.1mb 37f 36f
12:36 8 15 mph 1023.2mb 37f 36f
12:24 9 16 mph 1023.1mb 37f 36f
12:18 11 17 mph 1023mb 37f 36f
12:06 10 14 mph 1022.9mb 37f 36f
12:00 11 16 mph 1022.9mb 37f 36f
11:54 9 14 mph 1022.9mb 37f 36f
11:36 11 15 mph 1022.9mb 37f 36f
11:30 10 14 mph 1022.9mb 37f 35f
11:24 13 15 mph 1022.9mb 37f 35f
11:18 10 14 mph 1023.1mb 37f 35f
11:12 9 14 mph 1023.1mb 37f 35f
11:06 10 13 mph 1023.1mb 37f 35f
11:00 7 13 mph 1023.2mb 37f 35f
10:54 7 9 mph 1023.2mb 37f 34f
10:48 6 10 mph 1023.4mb 37f 34f
10:42 7 9 mph 1023.5mb 37f 34f
10:36 7 9 mph 1023.5mb 37f 34f
10:30 7 10 mph 1023.6mb 37f 34f
10:24 6 9 mph 1023.6mb 37f 34f
10:18 5 9 mph 1023.6mb 37f 34f
10:12 7 9 mph 1023.6mb 37f 34f
10:06 7 9 mph 1023.5mb 37f 33f
10:00 7 9 mph 1023.4mb 37f 33f
9:54 6 8 mph 1023.3mb 37f 33f
9:48 7 9 mph 1023.1mb 37f 33f
9:36 7 9 mph 1022.9mb 37f 33f
9:30  -  mph - 37f 33f
9:24  -  mph - 37f 33f
9:18 8 10 mph 1022.6mb 37f 33f
9:12 8 10 mph 1022.5mb 37f 33f
9:06 7 10 mph 1022.5mb 37f 33f
9:00 8 11 mph 1022.4mb 37f 33f
8:54 9 13 mph 1022.3mb 37f 33f
8:48 10 11 mph 1022.1mb 37f 33f
8:36 8 13 mph 1021.9mb 37f 33f